Sorve, Estonia

4:30 PM EEST on July 06, 2015 (GMT +0300)
Karala | | Change Station
CLOSE
Current Station
Personal Weather Station
Location: Saare Maakond, SAARE MAAKOND
Elevation: 20 ft
Nearby Weather Stations

Elev 20 ft 58.25 °N, 21.92 °E | Updated 58 seconds ago

Rain
Rain
62.4 °F
Feels Like 62.4 °F
N
8.1
Wind Variable Wind from ESE
Gusts 9.8 mph

Today
High -- | Low -- °F
--% Chance of Precip.
Yesterday
High -- | Low -- °F
Precip. -- in
4:39 AM 10:32 PM
Waning Gibbous, 75% visible
Pressure 29.77 in
Visibility 4.3 miles
Clouds Mostly Cloudy 1500 ft
Mostly Cloudy 2600 ft
Overcast 3500 ft
Dew Point 59 °F
Humidity 89%
Rainfall 0.17 in
Snow Depth Not available.
UV 1.0 out of 12
Pollen Not available.
Air Quality Not available.
Flu Activity Not available.
METAR EVVA 061320Z AUTO VRB02KT 7000 RA BKN015 BKN026 OVC035 19/18 Q1008

More Conditions Fewer Conditions

Pressure 29.77 in
Visibility 4.3 miles
Clouds Mostly Cloudy 1500 ft
Mostly Cloudy 2600 ft
Overcast 3500 ft
Dew Point 59 °F
Humidity 89%
Rainfall 0.17 in
Snow Depth Not available.
UV 1.0 out of 12
Pollen Not available.
Air Quality Not available.
Flu Activity Not available.
METAR EVVA 061320Z AUTO VRB02KT 7000 RA BKN015 BKN026 OVC035 19/18 Q1008

More Conditions Fewer Conditions

10-Day Weather Forecast

×

Almanac

Astronomy

Jul. 06, 2015 Rise Set
Actual Time
Civil Twilight
Nautical Twilight
Astronomical Twilight
Moon
Length of Visible Light
Length of Day
Tomorrow will be .
, % of the Moon is Illuminated

Today's Extremes

Country Highs Country Lows

Community

WunderPhotos

Upload Photos

1,835,558 photos uploaded!

WunderBlogs® & News

Nearby

Air Quality

  Air Quality AQ Index Pollutant
Not available.

Snow Depth

Station Depth Elevation

Earthquake Activity

City Distance Mag. Time & Date
Minimum magnitude displayed is 2.5.

Coastal Water Temperatures

Place Temperature

Stations

Nearby Weather Stations

Station Location Temp. Windchill Dew Point Humidity Wind Precip. Elev Updated Type